createdAt,value
2019-01-12T00:00:37.906Z,1.20
2019-01-12T00:03:07.971Z,1.30
2019-01-12T00:05:37.757Z,1.30
2019-01-12T00:08:08.107Z,1.30
2019-01-12T00:10:38.130Z,1.30
2019-01-12T00:13:08.275Z,1.40
2019-01-12T00:15:38.411Z,1.40
2019-01-12T00:18:08.894Z,1.40
2019-01-12T00:20:38.726Z,1.40
2019-01-12T00:23:08.509Z,1.40
2019-01-12T00:25:38.315Z,1.40
2019-01-12T00:28:08.368Z,1.40
2019-01-12T00:30:38.257Z,1.50
2019-01-12T00:33:08.622Z,1.50
2019-01-12T00:35:38.417Z,1.50
2019-01-12T00:38:08.222Z,1.50
2019-01-12T00:40:38.061Z,1.50
2019-01-12T00:43:08.234Z,1.50
2019-01-12T00:45:38.072Z,1.50
2019-01-12T00:48:07.929Z,1.60
2019-01-12T00:50:37.794Z,1.60
2019-01-12T00:53:07.662Z,1.70
2019-01-12T00:55:37.532Z,1.60
2019-01-12T00:58:07.497Z,1.60
2019-01-12T01:00:40.632Z,1.60
2019-01-12T01:03:10.874Z,1.60
2019-01-12T01:05:41.373Z,1.60
2019-01-12T01:08:11.430Z,1.60
2019-01-12T01:10:41.298Z,1.60
2019-01-12T01:13:11.223Z,1.60
2019-01-12T01:15:42.403Z,1.60
2019-01-12T01:18:12.438Z,1.60
2019-01-12T01:20:43.142Z,1.70
2019-01-12T01:23:13.320Z,1.70
2019-01-12T01:25:44.790Z,1.70
2019-01-12T01:28:14.672Z,1.60
2019-01-12T01:30:44.469Z,1.70
2019-01-12T01:33:14.750Z,1.70
2019-01-12T01:35:44.808Z,1.70
2019-01-12T01:38:17.951Z,1.70
2019-01-12T01:40:47.795Z,1.70
2019-01-12T01:43:18.044Z,1.70
2019-01-12T01:45:48.074Z,1.70
2019-01-12T01:48:18.084Z,1.70
2019-01-12T01:50:48.003Z,1.70
2019-01-12T01:53:17.908Z,1.80
2019-01-12T01:55:52.691Z,1.80
2019-01-12T01:58:22.971Z,1.70
2019-01-12T02:00:52.991Z,1.80
2019-01-12T02:03:27.946Z,1.70
2019-01-12T02:06:00.131Z,1.80
2019-01-12T02:08:30.626Z,1.80
2019-01-12T02:11:00.470Z,1.80
2019-01-12T02:13:30.211Z,1.80
2019-01-12T02:16:00.377Z,1.80
2019-01-12T02:18:30.221Z,1.80
2019-01-12T02:21:00.722Z,1.80
2019-01-12T02:23:30.578Z,1.80
2019-01-12T02:26:00.314Z,1.90
2019-01-12T02:28:35.274Z,1.90
2019-01-12T02:31:05.382Z,1.90
2019-01-12T02:33:35.239Z,1.90
2019-01-12T02:36:05.175Z,1.90
2019-01-12T02:38:35.275Z,1.90
2019-01-12T02:41:05.383Z,1.90
2019-01-12T02:43:35.245Z,1.90
2019-01-12T02:46:10.611Z,2.00
2019-01-12T02:48:40.239Z,1.90
2019-01-12T02:51:10.349Z,2.00
2019-01-12T02:53:40.115Z,2.00
2019-01-12T02:56:10.271Z,2.00
2019-01-12T02:58:43.682Z,1.90
2019-01-12T03:01:13.771Z,1.90
2019-01-12T03:03:44.145Z,1.90
2019-01-12T03:06:14.103Z,1.90
2019-01-12T03:08:45.872Z,1.90
2019-01-12T03:11:15.742Z,1.90
2019-01-12T03:13:45.518Z,2.00
2019-01-12T03:16:15.553Z,2.00
2019-01-12T03:18:45.579Z,2.00
2019-01-12T03:21:15.746Z,2.00
2019-01-12T03:23:45.530Z,1.90
2019-01-12T03:26:15.976Z,2.00
2019-01-12T03:28:46.238Z,2.00
2019-01-12T03:31:16.809Z,2.00
2019-01-12T03:33:47.049Z,2.00
2019-01-12T03:36:16.925Z,2.00
2019-01-12T03:38:46.964Z,2.00
2019-01-12T03:41:16.964Z,2.00
2019-01-12T03:43:47.173Z,2.10
2019-01-12T03:46:18.528Z,2.00
2019-01-12T03:48:51.679Z,2.00
2019-01-12T03:51:21.867Z,2.00
2019-01-12T03:53:51.830Z,2.10
2019-01-12T03:56:21.643Z,2.00
2019-01-12T03:58:51.681Z,2.10
2019-01-12T04:01:21.508Z,2.10
2019-01-12T04:03:52.866Z,2.10
2019-01-12T04:06:24.435Z,2.10
2019-01-12T04:08:54.629Z,2.10
2019-01-12T04:11:24.483Z,2.10
2019-01-12T04:13:56.084Z,2.20
2019-01-12T04:16:26.003Z,2.20
2019-01-12T04:18:55.751Z,2.20
2019-01-12T04:21:26.408Z,2.20
2019-01-12T04:23:56.215Z,2.20
2019-01-12T04:26:26.038Z,2.10
2019-01-12T04:28:56.163Z,2.20
2019-01-12T04:31:26.090Z,2.20
2019-01-12T04:33:58.986Z,2.30
2019-01-12T04:36:31.602Z,2.30
2019-01-12T04:39:02.879Z,2.20
2019-01-12T04:41:34.173Z,2.20
2019-01-12T04:44:04.392Z,2.20
2019-01-12T04:46:34.402Z,2.30
2019-01-12T04:49:04.578Z,2.40
2019-01-12T04:51:36.507Z,2.40
2019-01-12T04:54:06.395Z,2.40
2019-01-12T04:56:36.459Z,2.30
2019-01-12T04:59:06.340Z,2.30
2019-01-12T05:01:36.193Z,2.40
2019-01-12T05:04:06.367Z,2.30
2019-01-12T05:06:41.428Z,2.30
2019-01-12T05:09:11.245Z,2.40
2019-01-12T05:11:41.433Z,2.30
2019-01-12T05:14:11.815Z,2.30
2019-01-12T05:16:41.676Z,2.30
2019-01-12T05:19:14.666Z,2.30
2019-01-12T05:21:44.635Z,2.30
2019-01-12T05:24:14.803Z,2.30
2019-01-12T05:26:45.119Z,2.30
2019-01-12T05:29:16.565Z,2.40
2019-01-12T05:31:46.636Z,2.30
2019-01-12T05:34:19.642Z,2.40
2019-01-12T05:36:49.512Z,2.30
2019-01-12T05:39:19.319Z,2.30
2019-01-12T05:41:49.571Z,2.40
2019-01-12T05:44:19.623Z,2.30
2019-01-12T05:46:49.361Z,2.30
2019-01-12T05:49:19.460Z,2.30
2019-01-12T05:51:49.276Z,2.30
2019-01-12T05:54:19.532Z,2.30
2019-01-12T05:56:49.391Z,2.30
2019-01-12T05:59:19.649Z,2.30
2019-01-12T06:01:49.555Z,2.30
2019-01-12T06:04:19.658Z,2.30
2019-01-12T06:06:49.522Z,2.30
2019-01-12T06:09:19.609Z,2.40
2019-01-12T06:11:49.555Z,2.40
2019-01-12T06:14:19.396Z,2.30
2019-01-12T06:16:49.244Z,2.30
2019-01-12T06:19:19.090Z,2.40
2019-01-12T06:21:49.653Z,2.30
2019-01-12T06:24:19.486Z,2.40
2019-01-12T06:26:49.476Z,2.30
2019-01-12T06:29:19.535Z,2.30
2019-01-12T06:31:49.444Z,2.40
2019-01-12T06:34:19.459Z,2.40
2019-01-12T06:36:49.379Z,2.40
2019-01-12T06:39:19.419Z,2.40
2019-01-12T06:41:49.531Z,2.40
2019-01-12T06:44:19.415Z,2.40
2019-01-12T06:46:49.535Z,2.50
2019-01-12T06:49:20.896Z,2.50
2019-01-12T06:51:51.365Z,2.50
2019-01-12T06:54:22.441Z,2.50
2019-01-12T06:56:54.130Z,2.50
2019-01-12T06:59:24.210Z,2.50
2019-01-12T07:01:54.185Z,2.50
2019-01-12T07:04:24.220Z,2.50
2019-01-12T07:06:53.983Z,2.50
2019-01-12T07:09:23.811Z,2.60
2019-01-12T07:11:55.662Z,2.50
2019-01-12T07:14:25.641Z,2.50
2019-01-12T07:16:55.502Z,2.40
2019-01-12T07:19:25.479Z,2.50
2019-01-12T07:21:55.470Z,2.50
2019-01-12T07:24:25.230Z,2.50
2019-01-12T07:26:55.414Z,2.60
2019-01-12T07:29:25.455Z,2.60
2019-01-12T07:31:55.633Z,2.60
2019-01-12T07:34:25.390Z,2.60
2019-01-12T07:36:55.518Z,2.60
2019-01-12T07:39:25.733Z,2.60
2019-01-12T07:41:55.599Z,2.60
2019-01-12T07:44:25.750Z,2.60
2019-01-12T07:46:55.519Z,2.50
2019-01-12T07:49:25.277Z,2.50
2019-01-12T07:51:55.607Z,2.50
2019-01-12T07:54:25.286Z,2.60
2019-01-12T07:56:55.282Z,2.60
2019-01-12T07:59:25.404Z,2.60
2019-01-12T08:01:55.534Z,2.60
2019-01-12T08:04:25.334Z,2.60
2019-01-12T08:06:55.442Z,2.60
2019-01-12T08:09:25.216Z,2.70
2019-01-12T08:11:54.938Z,2.60
2019-01-12T08:14:25.007Z,2.60
2019-01-12T08:16:54.818Z,2.70
2019-01-12T08:19:24.597Z,2.70
2019-01-12T08:21:54.704Z,2.70
2019-01-12T08:24:24.467Z,2.80
2019-01-12T08:26:54.267Z,2.70
2019-01-12T08:29:24.115Z,2.70
2019-01-12T08:35:23.585Z,2.70
2019-01-12T08:37:53.530Z,2.70
2019-01-12T08:40:23.222Z,2.70
2019-01-12T08:42:55.755Z,2.70
2019-01-12T08:45:25.566Z,2.80
2019-01-12T08:47:55.263Z,2.90
2019-01-12T08:50:25.050Z,2.90
2019-01-12T08:52:54.810Z,2.90
2019-01-12T08:55:24.755Z,2.90
2019-01-12T08:57:54.710Z,2.90
2019-01-12T09:00:24.695Z,3.00
2019-01-12T09:02:54.885Z,3.00
2019-01-12T09:05:24.590Z,3.10
2019-01-12T09:07:54.390Z,3.10
2019-01-12T09:10:24.268Z,3.10
2019-01-12T09:12:53.976Z,3.10
2019-01-12T09:15:24.581Z,3.20
2019-01-12T09:17:54.299Z,3.20
2019-01-12T09:20:24.075Z,3.10
2019-01-12T09:22:54.362Z,3.10
2019-01-12T09:25:24.468Z,3.10
2019-01-12T09:27:54.610Z,3.20
2019-01-12T09:30:24.734Z,3.20
2019-01-12T09:32:54.830Z,3.20
2019-01-12T09:35:24.725Z,3.20
2019-01-12T09:37:54.675Z,3.20
2019-01-12T09:40:25.522Z,3.30
2019-01-12T09:42:55.337Z,3.20
2019-01-12T09:45:25.169Z,3.20
2019-01-12T09:47:55.024Z,3.20
2019-01-12T09:50:25.118Z,3.30
2019-01-12T09:52:54.979Z,3.30
2019-01-12T09:55:25.123Z,3.30
2019-01-12T09:57:54.978Z,3.30
2019-01-12T10:00:26.755Z,3.40
2019-01-12T10:02:56.856Z,3.40
2019-01-12T10:05:26.706Z,3.50
2019-01-12T10:07:56.854Z,3.60
2019-01-12T10:10:27.057Z,3.60
2019-01-12T10:12:56.805Z,3.50
2019-01-12T10:15:26.638Z,3.50
2019-01-12T10:17:56.461Z,3.40
2019-01-12T10:20:26.585Z,3.50
2019-01-12T10:22:56.265Z,3.50
2019-01-12T10:25:25.994Z,3.50
2019-01-12T10:27:55.870Z,3.50
2019-01-12T10:30:26.581Z,3.50
2019-01-12T10:32:56.769Z,3.40
2019-01-12T10:35:26.631Z,3.50
2019-01-12T10:37:56.472Z,3.50
2019-01-12T10:40:26.395Z,3.60
2019-01-12T10:42:56.622Z,3.60
2019-01-12T10:45:26.445Z,3.60
2019-01-12T10:47:56.650Z,3.60
2019-01-12T10:50:32.066Z,3.60
2019-01-12T10:53:02.162Z,3.60
2019-01-12T10:55:32.292Z,3.60
2019-01-12T10:58:03.978Z,3.70
2019-01-12T11:00:35.720Z,3.70
2019-01-12T11:03:05.818Z,3.60
2019-01-12T11:05:35.758Z,3.70
2019-01-12T11:08:06.142Z,3.70
2019-01-12T11:10:36.362Z,3.60
2019-01-12T11:13:06.601Z,3.60
2019-01-12T11:15:36.469Z,3.60
2019-01-12T11:18:06.535Z,3.70
2019-01-12T11:20:36.615Z,3.80
2019-01-12T11:23:06.447Z,3.70
2019-01-12T11:25:42.532Z,3.70
2019-01-12T11:28:07.619Z,3.70
2019-01-12T11:30:37.706Z,3.70
2019-01-12T11:33:07.735Z,3.70
2019-01-12T11:35:37.911Z,3.60
2019-01-12T11:38:08.020Z,3.50
2019-01-12T11:40:38.051Z,3.60
2019-01-12T11:43:07.865Z,3.60
2019-01-12T11:45:37.609Z,3.60
2019-01-12T11:48:07.410Z,3.50
2019-01-12T11:50:37.096Z,3.60
2019-01-12T11:53:06.862Z,3.60
2019-01-12T11:55:36.777Z,3.70
2019-01-12T11:58:06.689Z,3.70
2019-01-12T12:00:36.543Z,3.60
2019-01-12T12:03:06.482Z,3.70
2019-01-12T12:05:36.812Z,3.70
2019-01-12T12:08:06.949Z,3.70
2019-01-12T12:10:36.953Z,3.80
2019-01-12T12:13:06.739Z,3.70
2019-01-12T12:15:36.460Z,3.70
2019-01-12T12:18:06.129Z,3.80
2019-01-12T12:20:35.965Z,3.80
2019-01-12T12:23:05.831Z,3.80
2019-01-12T12:25:35.610Z,3.80
2019-01-12T12:28:05.643Z,3.90
2019-01-12T12:30:35.407Z,4.00
2019-01-12T12:33:05.238Z,4.00
2019-01-12T12:35:37.898Z,4.00
2019-01-12T12:38:06.963Z,4.00
2019-01-12T12:40:36.714Z,4.00
2019-01-12T12:43:06.587Z,4.10
2019-01-12T12:45:37.028Z,4.10
2019-01-12T12:48:13.023Z,4.20
2019-01-12T12:50:47.429Z,4.20
2019-01-12T12:53:17.286Z,4.20
2019-01-12T12:55:47.093Z,4.30
2019-01-12T12:58:16.859Z,4.30
2019-01-12T13:00:46.783Z,4.30
2019-01-12T13:03:16.597Z,4.30
2019-01-12T13:05:46.361Z,4.30
2019-01-12T13:08:16.116Z,4.30
2019-01-12T13:10:45.907Z,4.20
2019-01-12T13:13:16.217Z,4.20
2019-01-12T13:15:46.066Z,4.20
2019-01-12T13:18:16.450Z,4.20
2019-01-12T13:20:49.034Z,4.20
2019-01-12T13:23:18.918Z,4.20
2019-01-12T13:25:48.618Z,4.20
2019-01-12T13:28:18.843Z,4.10
2019-01-12T13:30:48.674Z,4.20
2019-01-12T13:33:18.429Z,4.10
2019-01-12T13:35:48.423Z,4.20
2019-01-12T13:38:18.127Z,4.20
2019-01-12T13:40:47.802Z,4.20
2019-01-12T13:43:17.854Z,4.20
2019-01-12T13:45:47.838Z,4.20
2019-01-12T13:48:17.750Z,4.20
2019-01-12T13:50:47.525Z,4.20
2019-01-12T13:53:17.382Z,4.20
2019-01-12T13:55:47.570Z,4.20
2019-01-12T13:58:17.615Z,4.20
2019-01-12T14:00:47.349Z,4.20
2019-01-12T14:03:17.275Z,4.20
2019-01-12T14:05:47.147Z,4.20
2019-01-12T14:08:16.859Z,4.10
2019-01-12T14:10:46.591Z,4.20
2019-01-12T14:13:16.510Z,4.10
2019-01-12T14:15:46.267Z,4.10
2019-01-12T14:18:22.435Z,4.00
2019-01-12T14:20:47.914Z,4.00
2019-01-12T14:23:17.661Z,4.00
2019-01-12T14:25:47.583Z,4.00
2019-01-12T14:28:17.249Z,4.00
2019-01-12T14:30:47.734Z,3.90
2019-01-12T14:33:20.584Z,3.90
2019-01-12T14:35:50.315Z,3.90
2019-01-12T14:38:21.856Z,3.90
2019-01-12T14:40:51.601Z,3.90
2019-01-12T14:43:21.310Z,3.90
2019-01-12T14:45:52.284Z,3.90
2019-01-12T14:48:22.048Z,3.90
2019-01-12T14:50:51.871Z,3.90
2019-01-12T14:53:21.614Z,3.80
2019-01-12T14:55:51.381Z,3.80
2019-01-12T14:58:21.083Z,3.80
2019-01-12T15:00:50.769Z,3.80
2019-01-12T15:03:20.819Z,3.80
2019-01-12T15:05:50.904Z,3.80
2019-01-12T15:08:21.047Z,3.80
2019-01-12T15:10:50.861Z,3.80
2019-01-12T15:13:20.806Z,3.80
2019-01-12T15:15:51.650Z,3.80
2019-01-12T15:18:21.462Z,3.70
2019-01-12T15:20:51.331Z,3.80
2019-01-12T15:23:21.211Z,3.80
2019-01-12T15:25:51.006Z,3.80
2019-01-12T15:28:21.409Z,3.80
2019-01-12T15:30:51.406Z,3.70
2019-01-12T15:33:21.194Z,3.70
2019-01-12T15:35:51.272Z,3.70
2019-01-12T15:38:20.946Z,3.70
2019-01-12T15:40:50.969Z,3.60
2019-01-12T15:43:21.195Z,3.60
2019-01-12T15:45:51.185Z,3.60
2019-01-12T15:48:36.504Z,3.60
2019-01-12T15:51:06.478Z,3.60
2019-01-12T15:53:36.379Z,3.60
2019-01-12T15:56:06.215Z,3.60
2019-01-12T15:58:36.312Z,3.60
2019-01-12T16:01:06.147Z,3.70
2019-01-12T16:03:36.710Z,3.70
2019-01-12T16:06:06.971Z,3.70
2019-01-12T16:08:36.950Z,3.70
2019-01-12T16:11:06.812Z,3.70
2019-01-12T16:13:37.935Z,3.70
2019-01-12T16:16:07.720Z,3.70
2019-01-12T16:18:37.757Z,3.70
2019-01-12T16:21:07.598Z,3.70
2019-01-12T16:23:37.438Z,3.70
2019-01-12T16:26:07.230Z,3.70
2019-01-12T16:28:37.624Z,3.70
2019-01-12T16:31:07.522Z,3.70
2019-01-12T16:33:37.482Z,3.70
2019-01-12T16:36:07.400Z,3.70
2019-01-12T16:38:37.294Z,3.70
2019-01-12T16:41:07.415Z,3.60
2019-01-12T16:43:37.358Z,3.70
2019-01-12T16:46:07.156Z,3.70
2019-01-12T16:48:36.953Z,3.70
2019-01-12T16:51:06.997Z,3.70
2019-01-12T16:53:36.991Z,3.60
2019-01-12T16:56:07.893Z,3.70
2019-01-12T16:58:37.898Z,3.70
2019-01-12T17:01:08.140Z,3.70
2019-01-12T17:03:38.227Z,3.70
2019-01-12T17:06:08.557Z,3.70
2019-01-12T17:08:38.339Z,3.70
2019-01-12T17:11:08.450Z,3.80
2019-01-12T17:13:40.080Z,3.80
2019-01-12T17:16:10.428Z,3.80
2019-01-12T17:18:40.346Z,3.80
2019-01-12T17:21:10.614Z,3.80
2019-01-12T17:23:41.060Z,3.80
2019-01-12T17:26:11.122Z,3.80
2019-01-12T17:28:40.949Z,3.80
2019-01-12T17:31:11.212Z,3.80
2019-01-12T17:33:41.251Z,3.80
2019-01-12T17:36:11.534Z,3.80
2019-01-12T17:38:41.602Z,3.80
2019-01-12T17:41:19.204Z,3.80
2019-01-12T17:43:49.151Z,3.80
2019-01-12T17:46:19.215Z,3.80
2019-01-12T17:48:49.762Z,3.80
2019-01-12T17:51:19.830Z,3.80
2019-01-12T17:53:50.028Z,3.80
2019-01-12T17:56:20.060Z,3.80
2019-01-12T17:58:49.848Z,3.70
2019-01-12T18:01:19.798Z,3.70
2019-01-12T18:03:52.854Z,3.70
2019-01-12T18:06:23.062Z,3.70
2019-01-12T18:08:53.112Z,3.70
2019-01-12T18:11:23.090Z,3.60
2019-01-12T18:13:52.944Z,3.50
2019-01-12T18:16:22.987Z,3.50
2019-01-12T18:18:52.758Z,3.40
2019-01-12T18:21:22.599Z,3.40
2019-01-12T18:23:52.461Z,3.40
2019-01-12T18:26:22.452Z,3.30
2019-01-12T18:28:52.203Z,3.40
2019-01-12T18:31:22.682Z,3.30
2019-01-12T18:33:53.186Z,3.30
2019-01-12T18:36:23.232Z,3.20
2019-01-12T18:38:53.711Z,3.20
2019-01-12T18:41:23.774Z,3.20
2019-01-12T18:43:54.539Z,3.10
2019-01-12T18:46:24.601Z,3.10
2019-01-12T18:48:54.703Z,3.10
2019-01-12T18:51:24.883Z,3.10
2019-01-12T18:53:54.639Z,3.00
2019-01-12T18:56:24.443Z,3.00
2019-01-12T18:58:58.996Z,3.00
2019-01-12T19:01:26.509Z,3.10
2019-01-12T19:03:56.286Z,3.10
2019-01-12T19:06:26.115Z,3.10
2019-01-12T19:08:56.268Z,3.00
2019-01-12T19:11:26.143Z,3.00
2019-01-12T19:13:56.486Z,3.00
2019-01-12T19:16:26.527Z,3.00
2019-01-12T19:18:59.448Z,2.90
2019-01-12T19:21:29.498Z,2.90
2019-01-12T19:23:59.443Z,2.90
2019-01-12T19:26:29.350Z,2.90
2019-01-12T19:29:06.151Z,2.90
2019-01-12T19:31:30.735Z,2.90
2019-01-12T19:34:00.576Z,2.90
2019-01-12T19:36:30.303Z,2.90
2019-01-12T19:39:00.234Z,2.90
2019-01-12T19:41:30.611Z,2.90
2019-01-12T19:44:00.911Z,2.90
2019-01-12T19:46:30.760Z,2.90
2019-01-12T19:49:02.583Z,2.90
2019-01-12T19:51:32.947Z,2.90
2019-01-12T19:54:03.638Z,2.90
2019-01-12T19:56:33.832Z,2.80
2019-01-12T19:59:04.597Z,2.80
2019-01-12T20:01:40.532Z,2.90
2019-01-12T20:04:15.969Z,2.80
2019-01-12T20:06:46.057Z,2.80
2019-01-12T20:09:16.181Z,2.80
2019-01-12T20:11:46.773Z,2.80
2019-01-12T20:14:17.055Z,2.80
2019-01-12T20:16:51.361Z,2.80
2019-01-12T20:19:24.776Z,2.90
2019-01-12T20:21:56.516Z,2.90
2019-01-12T20:24:32.587Z,2.90
2019-01-12T20:27:02.160Z,2.90
2019-01-12T20:29:32.399Z,3.00
2019-01-12T20:32:29.422Z,3.00
2019-01-12T20:35:25.647Z,3.00
2019-01-12T20:38:20.046Z,3.00
2019-01-12T20:41:24.718Z,3.10
2019-01-12T20:44:44.756Z,3.00
2019-01-12T20:47:36.677Z,3.10
2019-01-12T20:50:17.764Z,3.10
2019-01-12T20:53:28.513Z,3.10
2019-01-12T20:56:23.257Z,3.10
2019-01-12T20:59:28.320Z,3.10
2019-01-12T21:02:08.867Z,3.20
2019-01-12T21:05:08.414Z,3.20
2019-01-12T21:08:05.269Z,3.10
2019-01-12T21:11:21.094Z,3.10
2019-01-12T21:14:09.399Z,3.10
2019-01-12T21:16:53.267Z,3.10
2019-01-12T21:19:30.660Z,3.10
2019-01-12T21:22:04.702Z,3.10
2019-01-12T21:24:36.582Z,3.10
2019-01-12T21:27:08.758Z,3.10
2019-01-12T21:29:38.896Z,3.10
2019-01-12T21:32:09.028Z,3.10
2019-01-12T21:34:38.819Z,3.10
2019-01-12T21:37:08.952Z,3.10
2019-01-12T21:39:38.890Z,3.10
2019-01-12T21:42:08.847Z,3.10
2019-01-12T21:44:39.656Z,3.10
2019-01-12T21:47:09.751Z,3.10
2019-01-12T21:49:39.701Z,3.00
2019-01-12T21:52:10.116Z,3.10
2019-01-12T21:54:39.960Z,3.10
2019-01-12T21:57:09.784Z,3.10
2019-01-12T21:59:42.669Z,3.00
2019-01-12T22:02:11.786Z,3.00
2019-01-12T22:04:41.807Z,3.10
2019-01-12T22:07:11.954Z,3.00
2019-01-12T22:09:42.157Z,3.00
2019-01-12T22:12:12.003Z,3.00
2019-01-12T22:14:41.859Z,3.00
2019-01-12T22:17:11.839Z,3.00
2019-01-12T22:19:41.647Z,2.90
2019-01-12T22:22:11.445Z,3.00
2019-01-12T22:24:41.243Z,3.00
2019-01-12T22:27:11.379Z,3.00
2019-01-12T22:29:41.124Z,3.00
2019-01-12T22:32:10.933Z,3.00
2019-01-12T22:34:40.882Z,3.00
2019-01-12T22:37:11.199Z,3.10
2019-01-12T22:39:40.997Z,3.10
2019-01-12T22:42:10.717Z,3.10
2019-01-12T22:44:40.755Z,3.10
2019-01-12T22:47:10.639Z,3.10
2019-01-12T22:49:40.564Z,3.10
2019-01-12T22:52:10.662Z,3.00
2019-01-12T22:54:40.395Z,3.00
2019-01-12T22:57:10.252Z,3.00
2019-01-12T22:59:40.403Z,3.00
2019-01-12T23:02:11.167Z,3.00
2019-01-12T23:04:41.159Z,3.00
2019-01-12T23:07:11.735Z,3.00
2019-01-12T23:09:42.063Z,3.10
2019-01-12T23:12:12.127Z,3.10
2019-01-12T23:14:42.048Z,3.10
2019-01-12T23:17:12.100Z,3.10
2019-01-12T23:19:42.332Z,3.10
2019-01-12T23:22:12.271Z,3.00
2019-01-12T23:24:42.406Z,3.00
2019-01-12T23:27:12.240Z,2.90
2019-01-12T23:29:42.067Z,2.90
2019-01-12T23:32:12.290Z,3.00
2019-01-12T23:34:42.361Z,2.90
2019-01-12T23:37:12.288Z,3.00
2019-01-12T23:39:58.827Z,3.00
2019-01-12T23:42:28.746Z,3.00
2019-01-12T23:45:01.657Z,2.90
2019-01-12T23:47:31.385Z,3.00
2019-01-12T23:50:01.588Z,2.90
2019-01-12T23:52:31.412Z,2.90
2019-01-12T23:55:01.200Z,2.90
2019-01-12T23:57:31.005Z,2.90
